Flight Track Log - Related Links

Times and Time Zones

All times are in EDT time to prevent confusion due to time zone crossing. See the SWA2226 flight status page for this flight to view local times or setup timezone preferences in your user account.

Time Position Orientation Groundspeed Altitude Reporting Facility
EDT Latitude Longitude Course Direction KTS MPH feet Rate Location/Type
Sun 12:32:35 PM 26.7631 -80.0000 334° Northwest 253 291 5,700  Level Miami Center
Sun 12:33:35 PM 26.8203 -80.0619 316° Northwest 264 304 9,000 2,500 Climbing Miami Center
Sun 12:34:35 PM 26.8369 -80.1508 282° West 266 306 10,700 1,850 Climbing Miami Center
Sun 12:35:35 PM 26.8511 -80.2583 278° West 319 367 12,700 2,050 Climbing Miami Center
Sun 12:36:00 PM 26.9658 -80.3773 334° Northwest  Level FlightAware Approximate
Sun 12:36:35 PM 26.8717 -80.3592 283° West 367 422 14,800  Level Miami Center
Sun 12:37:35 PM 26.8772 -80.4781 273° West 383 441 17,800 2,200 Climbing Miami Center
Sun 12:38:35 PM 26.8931 -80.5950 279° West 388 447 19,200 1,500 Climbing Miami Center
Sun 12:39:35 PM 26.9764 -80.6769 319° Northwest 359 413 20,800 1,700 Climbing Miami Center
Sun 12:40:35 PM 27.0622 -80.7519 322° Northwest 375 432 22,600 1,250 Climbing Miami Center
Sun 12:41:35 PM 27.1581 -80.8369 322° Northwest 394 453 23,300 1,600 Climbing Miami Center
Sun 12:42:35 PM 27.2478 -80.9147 322° Northwest 399 459 25,800 2,350 Climbing Miami Center
Sun 12:43:35 PM 27.3353 -80.9903 323° Northwest 406 467 28,000 1,850 Climbing Miami Center
Sun 12:44:35 PM 27.4228 -81.0681 322° Northwest 400 460 29,500 1,750 Climbing Miami Center
Sun 12:45:35 PM 27.5125 -81.1486 321° Northwest 405 466 31,500 2,000 Climbing Miami Center
Sun 12:46:35 PM 27.5956 -81.2244 321° Northwest 400 460 33,500 1,850 Climbing Miami Center
Sun 12:47:35 PM 27.6789 -81.2981 322° Northwest 395 455 35,200 1,650 Climbing Miami Center
Sun 12:48:35 PM 27.7625 -81.3692 323° Northwest 389 448 36,800 1,350 Climbing Miami Center
Sun 12:49:35 PM 27.8503 -81.4267 330° Northwest 379 436 37,900 314 Climbing Miami Center
Sun 12:52:05 PM 28.0700 -81.5636 331° Northwest 367 422 37,900  Level Jacksonville Center
Sun 12:53:05 PM 28.1603 -81.6261 329° Northwest 372 428 37,900  Level Jacksonville Center
Sun 12:54:05 PM 28.2528 -81.6883 329° Northwest 378 435 37,900  Level Jacksonville Center
Sun 12:55:05 PM 28.3453 -81.7511 329° Northwest 383 441 37,900  Level Jacksonville Center
Sun 12:56:05 PM 28.4356 -81.8139 329° Northwest 383 441 37,900  Level Jacksonville Center
Sun 12:57:04 PM 28.5297 -81.8717 332° Northwest 383 441 37,900  Level Jacksonville Center
Sun 12:58:04 PM 28.6344 -81.9086 343° North 383 441 37,900 -50 Level Jacksonville Center
Sun 12:59:05 PM 28.7392 -81.9406 345° North 390 449 37,800  Descending Jacksonville Center
Sun 01:00:04 PM 28.8417 -81.9753 343° North 385 443 37,900 50 Climbing Jacksonville Center
Sun 01:01:04 PM 28.9544 -82.0144 343° North 377 434 37,900  Level Jacksonville Center
Sun 01:02:05 PM 29.0550 -82.0517 342° North 372 428 37,900  Level Jacksonville Center
Sun 01:03:05 PM 29.1597 -82.0889 343° North 378 435 37,900 300 Level Jacksonville Center
Sun 01:04:05 PM 29.2622 -82.1236 344° North 383 441 38,500 500 Climbing Jacksonville Center
Sun 01:05:05 PM 29.3667 -82.1633 342° North 383 441 38,900 150 Climbing Jacksonville Center
Sun 01:06:05 PM 29.4733 -82.1961 345° North 388 447 38,800  Descending Jacksonville Center
Sun 01:07:05 PM 29.5758 -82.2336 342° North 388 447 38,900 50 Climbing Jacksonville Center
Sun 01:08:05 PM 29.6783 -82.2686 343° North 383 441 38,900  Level Jacksonville Center
Sun 01:09:05 PM 29.7703 -82.3064 340° North 383 441 38,900  Level Jacksonville Center
Sun 01:10:05 PM 29.8833 -82.3417 345° North 383 441 38,900  Level Jacksonville Center
Sun 01:11:05 PM 29.9858 -82.3769 343° North 383 441 38,900 -50 Level Jacksonville Center
Sun 01:12:05 PM 30.0756 -82.4150 340° North 383 441 38,800  Descending Jacksonville Center
Sun 01:13:05 PM 30.1761 -82.4506 343° North 383 441 38,900 50 Climbing Jacksonville Center
Sun 01:14:05 PM 30.2783 -82.4861 343° North 383 441 38,900  Level Jacksonville Center
Sun 01:15:05 PM 30.3786 -82.5267 341° North 383 441 38,900  Level Jacksonville Center
Sun 01:16:05 PM 30.4811 -82.5600 344° North 383 441 38,900  Level Jacksonville Center
Sun 01:17:05 PM 30.5814 -82.5981 342° North 383 441 38,900  Level Jacksonville Center
Sun 01:18:05 PM 30.6817 -82.6342 343° North 383 441 38,900  Level Jacksonville Center
Sun 01:19:05 PM 30.7819 -82.6700 343° North 383 441 38,900  Level Jacksonville Center
Sun 01:20:05 PM 30.8844 -82.7086 342° North 383 441 38,900  Level Jacksonville Center
Sun 01:21:05 PM 30.9867 -82.7447 343° North 383 441 38,900  Level Jacksonville Center
Sun 01:22:05 PM 31.0892 -82.7833 342° North 383 441 38,900  Level Jacksonville Center
Sun 01:23:05 PM 31.1853 -82.8197 342° North 383 441 38,900  Level Jacksonville Center
Sun 01:24:05 PM 31.2897 -82.8561 343° North 383 441 38,900  Level Jacksonville Center
Sun 01:25:05 PM 31.3897 -82.8925 343° North 383 441 38,900  Level Jacksonville Center
Sun 01:26:53 PM 31.5811 -82.9614 343° North 390 449 38,900  Level Atlanta Center
Sun 01:27:53 PM 31.6858 -82.9992 343° North 390 449 38,900  Level Atlanta Center
Sun 01:28:53 PM 31.7906 -83.0369 343° North 390 449 38,900  Level Atlanta Center
Sun 01:29:53 PM 31.8931 -83.0775 341° North 385 443 38,900  Level Atlanta Center
Sun 01:30:53 PM 31.9997 -83.1131 344° North 385 443 38,900  Level Atlanta Center
Sun 01:31:53 PM 32.1003 -83.1536 341° North 385 443 38,900  Level Atlanta Center
Sun 01:32:53 PM 32.2028 -83.1944 341° North 385 443 38,900  Level Atlanta Center
Sun 01:33:53 PM 32.3033 -83.2303 343° North 385 443 38,900  Level Atlanta Center
Sun 01:34:53 PM 32.4039 -83.2689 342° North 385 443 38,900  Level Atlanta Center
Sun 01:35:53 PM 32.5042 -83.3050 343° North 379 436 38,900  Level Atlanta Center
Sun 01:36:53 PM 32.6044 -83.3436 342° North 379 436 38,900  Level Atlanta Center
Sun 01:37:53 PM 32.7050 -83.3822 342° North 379 436 38,900  Level Atlanta Center
Sun 01:38:53 PM 32.8053 -83.4211 342° North 379 436 38,900  Level Atlanta Center
Sun 01:39:53 PM 32.9078 -83.4575 343° North 384 442 38,900  Level Atlanta Center
Sun 01:40:53 PM 33.0103 -83.4964 342° North 384 442 38,900  Level Atlanta Center
Sun 01:41:53 PM 33.1211 -83.5428 341° North 384 442 38,900  Level Atlanta Center
Sun 01:42:53 PM 33.2131 -83.5794 342° North 384 442 38,900  Level Atlanta Center
Sun 01:43:53 PM 33.3175 -83.6211 342° North 384 442 38,900  Level Atlanta Center
Sun 01:44:53 PM 33.4200 -83.6606 342° North 384 442 38,900  Level Atlanta Center
Sun 01:45:53 PM 33.5244 -83.6975 344° North 384 442 38,900  Level Atlanta Center
Sun 01:46:53 PM 33.6269 -83.7369 342° North 384 442 38,900  Level Atlanta Center
Sun 01:47:53 PM 33.7333 -83.7792 342° North 384 442 38,900  Level Atlanta Center
Sun 01:48:53 PM 33.8358 -83.8161 343° North 384 442 38,900  Level Atlanta Center
Sun 01:49:53 PM 33.9381 -83.8561 342° North 384 442 38,900  Level Atlanta Center
Sun 01:50:53 PM 34.0425 -83.8958 343° North 384 442 38,900  Level Atlanta Center
Sun 01:51:53 PM 34.1469 -83.9383 341° North 384 442 38,900  Level Atlanta Center
Sun 01:52:53 PM 34.2617 -83.9811 343° North 384 442 38,900  Level Atlanta Center
Sun 01:53:53 PM 34.3683 -84.0236 342° North 389 448 38,900  Level Atlanta Center
Sun 01:54:53 PM 34.4767 -84.0664 342° North 394 453 38,900  Level Atlanta Center
Sun 01:55:53 PM 34.5789 -84.1069 342° North 394 453 38,900  Level Atlanta Center
Sun 01:56:53 PM 34.6686 -84.1475 340° North 383 441 38,900  Level Atlanta Center
Sun 01:57:53 PM 34.7731 -84.1906 341° North 383 441 38,900  Level Atlanta Center
Sun 01:58:53 PM 34.8939 -84.2339 344° North 395 455 38,900 450 Level Atlanta Center
Sun 01:59:53 PM 34.9836 -84.2719 341° North 395 455 39,800 500 Climbing Atlanta Center
Sun 02:00:53 PM 35.0878 -84.3153 341° North 389 448 39,900 50 Climbing Atlanta Center
Sun 02:01:53 PM 35.1881 -84.3564 341° North 384 442 39,900  Level Atlanta Center
Sun 02:02:53 PM 35.2881 -84.3950 343° North 384 442 39,900  Level Atlanta Center
Sun 02:03:53 PM 35.3900 -84.4361 342° North 384 442 39,900  Level Atlanta Center
Sun 02:04:53 PM 35.4922 -84.4775 342° North 384 442 39,900  Level Atlanta Center
Sun 02:05:53 PM 35.5922 -84.5189 341° North 384 442 39,900  Level Atlanta Center
Sun 02:06:53 PM 35.6942 -84.5603 342° North 384 442 39,900  Level Atlanta Center
Sun 02:07:53 PM 35.7983 -84.5994 343° North 384 442 39,900  Level Atlanta Center
Sun 02:09:42 PM 35.9969 -84.6817 341° North 386 444 39,900  Level Indianapolis Center
Sun 02:10:44 PM 36.0986 -84.7244 341° North 386 444 39,900  Level Indianapolis Center
Sun 02:11:46 PM 36.2000 -84.7661 342° North 386 444 39,900  Level Indianapolis Center
Sun 02:12:48 PM 36.3083 -84.7944 348° North 396 456 39,900  Level Indianapolis Center
Sun 02:13:50 PM 36.4169 -84.8258 347° North 398 458 39,900  Level Indianapolis Center
Sun 02:14:52 PM 36.5267 -84.8567 347° North 402 463 39,900  Level Indianapolis Center
Sun 02:15:54 PM 36.6592 -84.8947 347° North 404 465 39,900  Level Indianapolis Center
Sun 02:16:56 PM 36.7689 -84.9269 347° North 404 465 39,900  Level Indianapolis Center
Sun 02:17:59 PM 36.8803 -84.9578 348° North 405 466 39,900  Level Indianapolis Center
Sun 02:19:01 PM 36.9906 -84.9889 347° North 405 466 39,900  Level Indianapolis Center
Sun 02:20:03 PM 37.1017 -85.0217 347° North 406 467 39,900  Level Indianapolis Center
Sun 02:21:05 PM 37.2347 -85.0592 347° North 413 475 39,900  Level Indianapolis Center
Sun 02:22:07 PM 37.3478 -85.0914 347° North 413 475 39,900  Level Indianapolis Center
Sun 02:23:09 PM 37.4628 -85.1264 346° North 419 482 39,900  Level Indianapolis Center
Sun 02:24:11 PM 37.5797 -85.1589 348° North 424 488 39,900  Level Indianapolis Center
Sun 02:25:13 PM 37.6975 -85.1947 346° North 428 493 39,900  Level Indianapolis Center
Sun 02:26:15 PM 37.8167 -85.2300 347° North 433 498 39,900 -339 Level Indianapolis Center
Sun 02:27:17 PM 37.9347 -85.2644 347° North 433 498 39,200 -871 Descending Indianapolis Center
Sun 02:28:19 PM 38.0758 -85.3058 347° North 433 498 38,100 -1,016 Descending Indianapolis Center
Sun 02:29:21 PM 38.1900 -85.3386 347° North 425 489 37,100 -912 Descending Indianapolis Center
Sun 02:30:24 PM 38.3019 -85.3722 347° North 417 480 36,200 -912 Descending Indianapolis Center
Sun 02:31:26 PM 38.4136 -85.4075 346° North 416 479 35,200 -629 Descending Indianapolis Center
Sun 02:32:28 PM 38.5264 -85.4392 348° North 415 478 34,900 -339 Descending Indianapolis Center
Sun 02:33:30 PM 38.6411 -85.4744 346° North 415 478 34,500 -677 Descending Indianapolis Center
Sun 02:34:32 PM 38.7519 -85.5078 347° North 409 471 33,500 -1,016 Descending Indianapolis Center
Sun 02:35:34 PM 38.8861 -85.5478 347° North 411 473 32,400 -1,016 Descending Indianapolis Center
Sun 02:36:36 PM 38.9969 -85.5819 347° North 411 473 31,400 -1,548 Descending Indianapolis Center
Sun 02:37:38 PM 39.1097 -85.6161 347° North 411 473 29,200 -1,597 Descending Indianapolis Center
Sun 02:38:40 PM 39.2158 -85.6481 347° North 402 463 28,100 -1,016 Descending Indianapolis Center
Sun 02:39:42 PM 39.3175 -85.6806 346° North 386 444 27,100 -1,056 Descending Indianapolis Center
Sun 02:40:45 PM 39.4375 -85.7164 347° North 377 434 25,900 -1,008 Descending Indianapolis Center
Sun 02:41:47 PM 39.5361 -85.7478 346° North 369 425 25,000 -919 Descending Indianapolis Center
Sun 02:42:49 PM 39.6344 -85.7781 347° North 369 425 24,000 -823 Descending Indianapolis Center
Sun 02:43:51 PM 39.7308 -85.8072 347° North 364 419 23,300 -968 Descending Indianapolis Center
Sun 02:44:53 PM 39.8244 -85.8367 346° North 355 409 22,000 -677 Descending Indianapolis Center
Sun 02:45:55 PM 39.9375 -85.8717 347° North 354 407 21,900 -48 Descending Indianapolis Center
Sun 02:46:57 PM 40.0328 -85.9017 346° North 354 407 21,900  Level Indianapolis Center
Sun 02:47:59 PM 40.1297 -85.9319 347° North 355 409 21,900  Level Indianapolis Center
Sun 02:49:01 PM 40.2272 -85.9628 346° North 359 413 21,900 48 Level Indianapolis Center
Sun 02:50:03 PM 40.3222 -86.0022 342° North 361 415 22,000  Climbing Indianapolis Center
Sun 02:51:06 PM 40.4358 -86.0711 335° Northwest 371 427 21,900  Descending Indianapolis Center
Sun 02:52:08 PM 40.5333 -86.1269 336° Northwest 380 437 22,000 -851 Climbing Indianapolis Center
Sun 02:53:20 PM 40.6472 -86.1950 336° Northwest 379 436 20,000 -1,746 Descending Chicago Center
Sun 02:54:22 PM 40.7317 -86.2450 336° Northwest 370 426 18,100 -2,081 Descending Chicago Center
Sun 02:55:24 PM 40.8419 -86.3092 336° Northwest 364 419 15,700 -2,177 Descending Chicago Center
Sun 02:56:26 PM 40.9325 -86.3631 336° Northwest 359 413 13,600 -1,887 Descending Chicago Center
Sun 02:57:28 PM 41.0061 -86.4378 323° Northwest 337 388 11,800 -1,258 Descending Chicago Center
Sun 02:58:30 PM 41.0683 -86.5269 313° West 329 379 11,000 -384 Descending Chicago Center
Sun 02:59:33 PM 41.1297 -86.6125 314° West 324 373 11,000 -321 Level Chicago Center
Sun 03:01:37 PM 41.2628 -86.7975 314° West 312 359 10,000 -355 Descending Chicago Center
Sun 03:02:39 PM 41.3175 -86.8756 313° West 286 329 9,900 -97 Descending Chicago Center
Sun 03:03:41 PM 41.3739 -86.9550 313° West 275 316 9,800 -726 Descending Chicago Center
Sun 03:04:43 PM 41.4239 -87.0267 313° West 269 310 8,400 -1,403 Descending Chicago Center
Sun 03:05:45 PM 41.4769 -87.1031 313° West 265 305 6,900 -1,344 Descending Chicago Center
Sun 03:06:48 PM 41.5297 -87.1700 316° Northwest 264 304 5,600 -1,296 Descending Chicago Center
Sun 03:07:50 PM 41.5878 -87.2381 319° Northwest 262 302 4,200 -823 Descending Chicago Center
Sun 03:08:52 PM 41.6403 -87.3014 318° Northwest 258 297 3,900 -97 Descending Chicago Center
Sun 03:09:54 PM 41.6917 -87.3622 319° Northwest 232 267 4,000 -145 Climbing Chicago Center
Sun 03:10:56 PM 41.7381 -87.4164 319° Northwest 224 258 3,600 -484 Descending Chicago Center
Sun 03:11:58 PM 41.7836 -87.4725 317° Northwest 224 258 3,000 -290 Descending Chicago Center
Sun 03:13:00 PM 41.8256 -87.5228 318° Northwest 190 219 3,000  Level Chicago Center
Sun 03:14:02 PM 41.8478 -87.5744 300° West 180 207 3,000 -242 Level Chicago Center
Sun 03:15:04 PM 41.8450 -87.6439 267° West 176 203 2,500 -624 Descending Chicago Center
Sun 03:16:07 PM 41.8228 -87.6894 237° Southwest 148 170 1,700 -768 Descending Chicago Center
Sun 03:17:09 PM 41.8011 -87.7328 236° Southwest 133 153 900 -484 Descending Chicago Center
Sun 03:18:11 PM 41.7708 -87.7686 221° Southwest 133 153 700 -194 Descending Chicago Center

Login

Don't have an account? Register now (free) for customized features, flight alerts, and more!